sensor_id;sensor_type;location;lat;lon;timestamp;P1;durP1;ratioP1;P2;durP2;ratioP2
42110;SDS011;27766;52.174;5.456;2023-10-31T00:01:19;2.65;;;0.98;;
42110;SDS011;27766;52.174;5.456;2023-10-31T00:03:47;1.80;;;1.00;;
42110;SDS011;27766;52.174;5.456;2023-10-31T00:06:15;1.95;;;0.80;;
42110;SDS011;27766;52.174;5.456;2023-10-31T00:08:42;2.90;;;1.17;;
42110;SDS011;27766;52.174;5.456;2023-10-31T00:11:09;1.88;;;0.77;;
42110;SDS011;27766;52.174;5.456;2023-10-31T00:13:37;6.88;;;1.10;;
42110;SDS011;27766;52.174;5.456;2023-10-31T00:16:04;2.35;;;0.70;;
42110;SDS011;27766;52.174;5.456;2023-10-31T00:18:34;3.92;;;0.70;;
42110;SDS011;27766;52.174;5.456;2023-10-31T00:21:01;5.78;;;0.95;;
42110;SDS011;27766;52.174;5.456;2023-10-31T00:23:28;2.42;;;0.98;;
42110;SDS011;27766;52.174;5.456;2023-10-31T00:25:55;3.30;;;0.85;;
42110;SDS011;27766;52.174;5.456;2023-10-31T00:28:22;3.15;;;0.65;;
42110;SDS011;27766;52.174;5.456;2023-10-31T00:30:50;1.35;;;0.60;;
42110;SDS011;27766;52.174;5.456;2023-10-31T00:33:17;3.72;;;1.05;;
42110;SDS011;27766;52.174;5.456;2023-10-31T00:35:45;13.98;;;1.23;;
42110;SDS011;27766;52.174;5.456;2023-10-31T00:38:12;2.70;;;1.13;;
42110;SDS011;27766;52.174;5.456;2023-10-31T00:40:39;3.35;;;1.15;;
42110;SDS011;27766;52.174;5.456;2023-10-31T00:43:06;4.60;;;1.85;;
42110;SDS011;27766;52.174;5.456;2023-10-31T00:45:33;5.93;;;1.92;;
42110;SDS011;27766;52.174;5.456;2023-10-31T00:48:01;4.65;;;2.75;;
42110;SDS011;27766;52.174;5.456;2023-10-31T00:50:28;5.90;;;2.90;;
42110;SDS011;27766;52.174;5.456;2023-10-31T00:52:55;4.00;;;2.85;;
42110;SDS011;27766;52.174;5.456;2023-10-31T00:55:23;7.18;;;4.03;;
42110;SDS011;27766;52.174;5.456;2023-10-31T00:57:50;5.85;;;4.25;;
42110;SDS011;27766;52.174;5.456;2023-10-31T01:00:18;8.88;;;5.32;;
42110;SDS011;27766;52.174;5.456;2023-10-31T01:02:45;11.57;;;6.10;;
42110;SDS011;27766;52.174;5.456;2023-10-31T01:05:13;11.00;;;6.90;;
42110;SDS011;27766;52.174;5.456;2023-10-31T01:07:40;11.30;;;7.95;;
42110;SDS011;27766;52.174;5.456;2023-10-31T01:10:07;11.82;;;8.88;;
42110;SDS011;27766;52.174;5.456;2023-10-31T01:12:34;11.82;;;8.63;;
42110;SDS011;27766;52.174;5.456;2023-10-31T01:15:02;15.77;;;9.80;;
42110;SDS011;27766;52.174;5.456;2023-10-31T01:17:29;15.73;;;9.88;;
42110;SDS011;27766;52.174;5.456;2023-10-31T01:19:57;11.77;;;9.20;;
42110;SDS011;27766;52.174;5.456;2023-10-31T01:22:24;16.10;;;10.57;;
42110;SDS011;27766;52.174;5.456;2023-10-31T01:24:51;13.80;;;10.00;;
42110;SDS011;27766;52.174;5.456;2023-10-31T01:27:18;19.27;;;10.07;;
42110;SDS011;27766;52.174;5.456;2023-10-31T01:29:46;16.02;;;9.82;;
42110;SDS011;27766;52.174;5.456;2023-10-31T01:32:13;18.50;;;9.45;;
42110;SDS011;27766;52.174;5.456;2023-10-31T01:34:48;12.45;;;7.15;;
42110;SDS011;27766;52.174;5.456;2023-10-31T01:37:15;12.88;;;8.15;;
42110;SDS011;27766;52.174;5.456;2023-10-31T01:39:46;10.38;;;6.72;;
42110;SDS011;27766;52.174;5.456;2023-10-31T01:42:13;9.70;;;5.55;;
42110;SDS011;27766;52.174;5.456;2023-10-31T01:44:41;7.68;;;5.07;;
42110;SDS011;27766;52.174;5.456;2023-10-31T01:47:09;10.07;;;5.15;;
42110;SDS011;27766;52.174;5.456;2023-10-31T01:49:36;11.77;;;5.50;;
42110;SDS011;27766;52.174;5.456;2023-10-31T01:52:05;9.80;;;5.50;;
42110;SDS011;27766;52.174;5.456;2023-10-31T01:54:33;6.53;;;4.70;;
42110;SDS011;27766;52.174;5.456;2023-10-31T01:57:01;11.35;;;4.60;;
42110;SDS011;27766;52.174;5.456;2023-10-31T01:59:30;4.00;;;3.08;;
42110;SDS011;27766;52.174;5.456;2023-10-31T02:01:58;5.22;;;3.30;;
42110;SDS011;27766;52.174;5.456;2023-10-31T02:04:26;4.05;;;2.20;;
42110;SDS011;27766;52.174;5.456;2023-10-31T02:06:54;3.63;;;2.17;;
42110;SDS011;27766;52.174;5.456;2023-10-31T02:09:21;3.97;;;2.47;;
42110;SDS011;27766;52.174;5.456;2023-10-31T02:11:51;5.18;;;3.42;;
42110;SDS011;27766;52.174;5.456;2023-10-31T02:14:18;8.25;;;4.22;;
42110;SDS011;27766;52.174;5.456;2023-10-31T02:16:45;7.40;;;4.78;;
42110;SDS011;27766;52.174;5.456;2023-10-31T02:19:13;8.43;;;4.85;;
42110;SDS011;27766;52.174;5.456;2023-10-31T02:21:44;7.72;;;5.22;;
42110;SDS011;27766;52.174;5.456;2023-10-31T02:24:11;8.48;;;5.65;;
42110;SDS011;27766;52.174;5.456;2023-10-31T02:26:38;13.20;;;6.10;;
42110;SDS011;27766;52.174;5.456;2023-10-31T02:29:05;11.40;;;6.40;;
42110;SDS011;27766;52.174;5.456;2023-10-31T02:31:33;9.85;;;6.22;;
42110;SDS011;27766;52.174;5.456;2023-10-31T02:34:01;13.70;;;7.18;;
42110;SDS011;27766;52.174;5.456;2023-10-31T02:36:28;11.52;;;7.30;;
42110;SDS011;27766;52.174;5.456;2023-10-31T02:38:55;16.60;;;7.68;;
42110;SDS011;27766;52.174;5.456;2023-10-31T02:41:22;10.05;;;7.30;;
42110;SDS011;27766;52.174;5.456;2023-10-31T02:43:50;10.82;;;7.57;;
42110;SDS011;27766;52.174;5.456;2023-10-31T02:46:17;12.93;;;8.73;;
42110;SDS011;27766;52.174;5.456;2023-10-31T02:48:46;21.02;;;9.18;;
42110;SDS011;27766;52.174;5.456;2023-10-31T02:51:13;16.17;;;9.52;;
42110;SDS011;27766;52.174;5.456;2023-10-31T02:53:40;23.02;;;10.77;;
42110;SDS011;27766;52.174;5.456;2023-10-31T02:56:07;12.45;;;9.98;;
42110;SDS011;27766;52.174;5.456;2023-10-31T02:58:34;13.15;;;9.55;;
42110;SDS011;27766;52.174;5.456;2023-10-31T03:01:02;10.98;;;9.23;;
42110;SDS011;27766;52.174;5.456;2023-10-31T03:03:29;11.82;;;9.60;;
42110;SDS011;27766;52.174;5.456;2023-10-31T03:05:56;15.48;;;9.23;;
42110;SDS011;27766;52.174;5.456;2023-10-31T03:08:23;19.33;;;9.30;;
42110;SDS011;27766;52.174;5.456;2023-10-31T03:10:51;12.93;;;9.55;;
42110;SDS011;27766;52.174;5.456;2023-10-31T03:13:19;11.75;;;8.05;;
42110;SDS011;27766;52.174;5.456;2023-10-31T03:15:46;13.20;;;7.95;;
42110;SDS011;27766;52.174;5.456;2023-10-31T03:18:14;9.82;;;7.30;;
42110;SDS011;27766;52.174;5.456;2023-10-31T03:20:44;12.10;;;7.43;;
42110;SDS011;27766;52.174;5.456;2023-10-31T03:23:13;9.57;;;6.90;;
42110;SDS011;27766;52.174;5.456;2023-10-31T03:25:40;13.90;;;6.93;;
42110;SDS011;27766;52.174;5.456;2023-10-31T03:28:17;10.23;;;6.70;;
42110;SDS011;27766;52.174;5.456;2023-10-31T03:30:49;10.77;;;6.18;;
42110;SDS011;27766;52.174;5.456;2023-10-31T03:33:16;9.68;;;6.47;;
42110;SDS011;27766;52.174;5.456;2023-10-31T03:35:44;13.60;;;5.55;;
42110;SDS011;27766;52.174;5.456;2023-10-31T03:38:11;8.20;;;5.78;;
42110;SDS011;27766;52.174;5.456;2023-10-31T03:40:38;9.43;;;5.65;;
42110;SDS011;27766;52.174;5.456;2023-10-31T03:43:05;8.88;;;4.90;;
42110;SDS011;27766;52.174;5.456;2023-10-31T03:45:33;10.45;;;4.72;;
42110;SDS011;27766;52.174;5.456;2023-10-31T03:48:00;7.68;;;4.50;;
42110;SDS011;27766;52.174;5.456;2023-10-31T03:50:27;9.25;;;4.80;;
42110;SDS011;27766;52.174;5.456;2023-10-31T03:52:54;10.95;;;4.75;;
42110;SDS011;27766;52.174;5.456;2023-10-31T03:55:21;11.13;;;4.70;;
42110;SDS011;27766;52.174;5.456;2023-10-31T03:57:48;9.02;;;3.80;;
42110;SDS011;27766;52.174;5.456;2023-10-31T04:00:16;6.10;;;2.92;;
42110;SDS011;27766;52.174;5.456;2023-10-31T04:02:43;3.28;;;2.75;;
42110;SDS011;27766;52.174;5.456;2023-10-31T04:05:10;4.35;;;2.75;;
42110;SDS011;27766;52.174;5.456;2023-10-31T04:07:38;10.40;;;3.10;;
42110;SDS011;27766;52.174;5.456;2023-10-31T04:10:05;4.70;;;2.75;;
42110;SDS011;27766;52.174;5.456;2023-10-31T04:12:33;4.68;;;2.72;;
42110;SDS011;27766;52.174;5.456;2023-10-31T04:15:00;3.80;;;2.08;;
42110;SDS011;27766;52.174;5.456;2023-10-31T04:17:28;5.43;;;1.80;;
42110;SDS011;27766;52.174;5.456;2023-10-31T04:19:55;3.33;;;1.75;;
42110;SDS011;27766;52.174;5.456;2023-10-31T04:22:22;2.70;;;1.30;;
42110;SDS011;27766;52.174;5.456;2023-10-31T04:24:49;3.10;;;1.23;;
42110;SDS011;27766;52.174;5.456;2023-10-31T04:27:17;1.67;;;1.13;;
42110;SDS011;27766;52.174;5.456;2023-10-31T04:29:44;4.07;;;0.95;;
42110;SDS011;27766;52.174;5.456;2023-10-31T04:32:11;4.40;;;1.13;;
42110;SDS011;27766;52.174;5.456;2023-10-31T04:34:39;6.95;;;0.70;;
42110;SDS011;27766;52.174;5.456;2023-10-31T04:37:06;2.40;;;0.60;;
42110;SDS011;27766;52.174;5.456;2023-10-31T04:39:33;1.67;;;0.60;;
42110;SDS011;27766;52.174;5.456;2023-10-31T04:42:00;2.38;;;0.57;;
42110;SDS011;27766;52.174;5.456;2023-10-31T04:44:27;2.67;;;0.52;;
42110;SDS011;27766;52.174;5.456;2023-10-31T04:46:54;2.33;;;0.80;;
42110;SDS011;27766;52.174;5.456;2023-10-31T04:49:22;3.60;;;0.60;;
42110;SDS011;27766;52.174;5.456;2023-10-31T04:51:49;0.63;;;0.38;;
42110;SDS011;27766;52.174;5.456;2023-10-31T04:54:16;2.38;;;0.50;;
42110;SDS011;27766;52.174;5.456;2023-10-31T04:56:44;1.15;;;0.43;;
42110;SDS011;27766;52.174;5.456;2023-10-31T04:59:11;0.50;;;0.35;;
42110;SDS011;27766;52.174;5.456;2023-10-31T05:01:38;1.10;;;0.50;;
42110;SDS011;27766;52.174;5.456;2023-10-31T05:04:05;0.70;;;0.50;;
42110;SDS011;27766;52.174;5.456;2023-10-31T05:06:39;1.17;;;0.50;;
42110;SDS011;27766;52.174;5.456;2023-10-31T05:09:06;7.03;;;0.70;;
42110;SDS011;27766;52.174;5.456;2023-10-31T05:11:34;1.95;;;0.40;;
42110;SDS011;27766;52.174;5.456;2023-10-31T05:14:01;2.45;;;0.60;;
42110;SDS011;27766;52.174;5.456;2023-10-31T05:16:29;1.05;;;0.68;;
42110;SDS011;27766;52.174;5.456;2023-10-31T05:18:56;3.97;;;0.50;;
42110;SDS011;27766;52.174;5.456;2023-10-31T05:21:26;1.17;;;0.55;;
42110;SDS011;27766;52.174;5.456;2023-10-31T05:23:53;0.85;;;0.45;;
42110;SDS011;27766;52.174;5.456;2023-10-31T05:26:21;1.02;;;0.45;;
42110;SDS011;27766;52.174;5.456;2023-10-31T05:28:48;1.27;;;0.70;;
42110;SDS011;27766;52.174;5.456;2023-10-31T05:31:15;0.63;;;0.50;;
42110;SDS011;27766;52.174;5.456;2023-10-31T05:33:44;0.95;;;0.52;;
42110;SDS011;27766;52.174;5.456;2023-10-31T05:36:18;1.40;;;0.70;;
42110;SDS011;27766;52.174;5.456;2023-10-31T05:38:49;3.25;;;0.50;;
42110;SDS011;27766;52.174;5.456;2023-10-31T05:41:16;1.65;;;0.63;;
42110;SDS011;27766;52.174;5.456;2023-10-31T05:43:44;1.15;;;0.60;;
42110;SDS011;27766;52.174;5.456;2023-10-31T05:46:11;3.95;;;0.90;;
42110;SDS011;27766;52.174;5.456;2023-10-31T05:48:41;1.52;;;0.90;;
42110;SDS011;27766;52.174;5.456;2023-10-31T05:51:14;0.55;;;0.52;;
42110;SDS011;27766;52.174;5.456;2023-10-31T05:53:43;1.80;;;0.95;;
42110;SDS011;27766;52.174;5.456;2023-10-31T05:56:14;3.30;;;0.90;;
42110;SDS011;27766;52.174;5.456;2023-10-31T05:58:42;1.92;;;1.17;;
42110;SDS011;27766;52.174;5.456;2023-10-31T06:01:10;4.15;;;1.10;;
42110;SDS011;27766;52.174;5.456;2023-10-31T06:03:37;4.95;;;0.75;;
42110;SDS011;27766;52.174;5.456;2023-10-31T06:06:07;1.88;;;1.08;;
42110;SDS011;27766;52.174;5.456;2023-10-31T06:08:34;1.85;;;0.60;;
42110;SDS011;27766;52.174;5.456;2023-10-31T06:11:03;1.77;;;0.88;;
42110;SDS011;27766;52.174;5.456;2023-10-31T06:13:30;3.08;;;0.90;;
42110;SDS011;27766;52.174;5.456;2023-10-31T06:15:58;2.05;;;1.10;;
42110;SDS011;27766;52.174;5.456;2023-10-31T06:18:28;1.42;;;1.05;;
42110;SDS011;27766;52.174;5.456;2023-10-31T06:20:55;1.73;;;1.42;;
42110;SDS011;27766;52.174;5.456;2023-10-31T06:23:22;2.60;;;1.45;;
42110;SDS011;27766;52.174;5.456;2023-10-31T06:25:50;6.60;;;1.75;;
42110;SDS011;27766;52.174;5.456;2023-10-31T06:28:17;3.92;;;2.10;;
42110;SDS011;27766;52.174;5.456;2023-10-31T06:30:45;6.00;;;2.38;;
42110;SDS011;27766;52.174;5.456;2023-10-31T06:33:12;6.78;;;2.25;;
42110;SDS011;27766;52.174;5.456;2023-10-31T06:35:40;3.30;;;2.33;;
42110;SDS011;27766;52.174;5.456;2023-10-31T06:38:07;5.30;;;3.05;;
42110;SDS011;27766;52.174;5.456;2023-10-31T06:40:34;6.88;;;3.83;;
42110;SDS011;27766;52.174;5.456;2023-10-31T06:43:01;5.88;;;4.07;;
42110;SDS011;27766;52.174;5.456;2023-10-31T06:45:29;4.95;;;3.67;;
42110;SDS011;27766;52.174;5.456;2023-10-31T06:47:56;5.55;;;3.55;;
42110;SDS011;27766;52.174;5.456;2023-10-31T06:50:23;12.73;;;4.78;;
42110;SDS011;27766;52.174;5.456;2023-10-31T06:52:51;5.38;;;4.88;;
42110;SDS011;27766;52.174;5.456;2023-10-31T06:55:18;8.63;;;4.75;;
42110;SDS011;27766;52.174;5.456;2023-10-31T06:57:46;8.57;;;4.88;;
42110;SDS011;27766;52.174;5.456;2023-10-31T07:00:13;6.55;;;4.78;;
42110;SDS011;27766;52.174;5.456;2023-10-31T07:02:41;6.82;;;5.03;;
42110;SDS011;27766;52.174;5.456;2023-10-31T07:05:08;5.25;;;4.15;;
42110;SDS011;27766;52.174;5.456;2023-10-31T07:07:36;7.18;;;4.53;;
42110;SDS011;27766;52.174;5.456;2023-10-31T07:10:03;4.85;;;3.92;;
42110;SDS011;27766;52.174;5.456;2023-10-31T07:12:31;4.82;;;3.22;;
42110;SDS011;27766;52.174;5.456;2023-10-31T07:14:58;6.05;;;3.08;;
42110;SDS011;27766;52.174;5.456;2023-10-31T07:17:26;7.22;;;2.88;;
42110;SDS011;27766;52.174;5.456;2023-10-31T07:19:53;7.22;;;2.75;;
42110;SDS011;27766;52.174;5.456;2023-10-31T07:22:21;5.15;;;2.80;;
42110;SDS011;27766;52.174;5.456;2023-10-31T07:24:50;5.30;;;2.10;;
42110;SDS011;27766;52.174;5.456;2023-10-31T07:27:21;3.08;;;2.53;;
42110;SDS011;27766;52.174;5.456;2023-10-31T07:29:48;4.07;;;2.13;;
42110;SDS011;27766;52.174;5.456;2023-10-31T07:32:16;6.85;;;2.10;;
42110;SDS011;27766;52.174;5.456;2023-10-31T07:34:44;2.30;;;1.35;;
42110;SDS011;27766;52.174;5.456;2023-10-31T07:37:11;3.15;;;1.88;;
42110;SDS011;27766;52.174;5.456;2023-10-31T07:39:39;2.03;;;1.17;;
42110;SDS011;27766;52.174;5.456;2023-10-31T07:42:07;3.47;;;1.48;;
42110;SDS011;27766;52.174;5.456;2023-10-31T07:44:34;4.72;;;1.83;;
42110;SDS011;27766;52.174;5.456;2023-10-31T07:47:01;2.38;;;1.50;;
42110;SDS011;27766;52.174;5.456;2023-10-31T07:49:28;3.13;;;1.35;;
42110;SDS011;27766;52.174;5.456;2023-10-31T07:51:56;5.85;;;1.95;;
42110;SDS011;27766;52.174;5.456;2023-10-31T07:54:23;1.42;;;1.05;;
42110;SDS011;27766;52.174;5.456;2023-10-31T07:56:50;2.08;;;1.52;;
42110;SDS011;27766;52.174;5.456;2023-10-31T07:59:17;3.80;;;1.70;;
42110;SDS011;27766;52.174;5.456;2023-10-31T08:01:44;2.83;;;1.83;;
42110;SDS011;27766;52.174;5.456;2023-10-31T08:04:12;7.40;;;1.55;;
42110;SDS011;27766;52.174;5.456;2023-10-31T08:06:41;3.75;;;1.60;;
42110;SDS011;27766;52.174;5.456;2023-10-31T08:09:09;2.25;;;1.23;;
42110;SDS011;27766;52.174;5.456;2023-10-31T08:11:36;2.95;;;1.73;;
42110;SDS011;27766;52.174;5.456;2023-10-31T08:14:03;4.68;;;1.45;;
42110;SDS011;27766;52.174;5.456;2023-10-31T08:16:30;4.90;;;1.73;;
42110;SDS011;27766;52.174;5.456;2023-10-31T08:18:58;3.40;;;1.33;;
42110;SDS011;27766;52.174;5.456;2023-10-31T08:21:25;2.15;;;1.60;;
42110;SDS011;27766;52.174;5.456;2023-10-31T08:23:55;4.68;;;1.95;;
42110;SDS011;27766;52.174;5.456;2023-10-31T08:26:22;5.38;;;1.65;;
42110;SDS011;27766;52.174;5.456;2023-10-31T08:28:49;2.85;;;1.63;;
42110;SDS011;27766;52.174;5.456;2023-10-31T08:31:21;3.22;;;2.17;;
42110;SDS011;27766;52.174;5.456;2023-10-31T08:33:48;3.25;;;1.80;;
42110;SDS011;27766;52.174;5.456;2023-10-31T08:36:15;3.28;;;2.13;;
42110;SDS011;27766;52.174;5.456;2023-10-31T08:38:43;3.92;;;1.58;;
42110;SDS011;27766;52.174;5.456;2023-10-31T08:41:10;7.13;;;1.60;;
42110;SDS011;27766;52.174;5.456;2023-10-31T08:43:37;6.25;;;2.42;;
42110;SDS011;27766;52.174;5.456;2023-10-31T08:46:05;6.47;;;2.42;;
42110;SDS011;27766;52.174;5.456;2023-10-31T08:48:32;3.03;;;2.13;;
42110;SDS011;27766;52.174;5.456;2023-10-31T08:51:00;5.50;;;2.58;;
42110;SDS011;27766;52.174;5.456;2023-10-31T08:53:27;4.57;;;1.90;;
42110;SDS011;27766;52.174;5.456;2023-10-31T08:55:54;5.63;;;2.80;;
42110;SDS011;27766;52.174;5.456;2023-10-31T08:58:23;3.53;;;2.78;;
42110;SDS011;27766;52.174;5.456;2023-10-31T09:00:50;5.95;;;3.10;;
42110;SDS011;27766;52.174;5.456;2023-10-31T09:03:20;6.95;;;3.33;;
42110;SDS011;27766;52.174;5.456;2023-10-31T09:05:48;9.70;;;3.10;;
42110;SDS011;27766;52.174;5.456;2023-10-31T09:08:15;6.03;;;3.30;;
42110;SDS011;27766;52.174;5.456;2023-10-31T09:10:42;5.60;;;2.78;;
42110;SDS011;27766;52.174;5.456;2023-10-31T09:13:13;7.70;;;2.95;;
42110;SDS011;27766;52.174;5.456;2023-10-31T09:15:43;6.45;;;2.75;;
42110;SDS011;27766;52.174;5.456;2023-10-31T09:18:12;5.00;;;2.67;;
42110;SDS011;27766;52.174;5.456;2023-10-31T09:20:42;5.65;;;2.85;;
42110;SDS011;27766;52.174;5.456;2023-10-31T09:23:10;4.57;;;2.30;;
42110;SDS011;27766;52.174;5.456;2023-10-31T09:25:38;9.25;;;2.53;;
42110;SDS011;27766;52.174;5.456;2023-10-31T09:28:05;7.35;;;2.70;;
42110;SDS011;27766;52.174;5.456;2023-10-31T09:30:32;4.10;;;2.55;;
42110;SDS011;27766;52.174;5.456;2023-10-31T09:32:59;8.50;;;2.25;;
42110;SDS011;27766;52.174;5.456;2023-10-31T09:35:27;3.95;;;2.38;;
42110;SDS011;27766;52.174;5.456;2023-10-31T09:37:54;2.88;;;1.92;;
42110;SDS011;27766;52.174;5.456;2023-10-31T09:40:22;3.38;;;1.55;;
42110;SDS011;27766;52.174;5.456;2023-10-31T09:42:49;5.38;;;1.90;;
42110;SDS011;27766;52.174;5.456;2023-10-31T09:45:17;3.75;;;2.33;;
42110;SDS011;27766;52.174;5.456;2023-10-31T09:47:45;6.03;;;2.63;;
42110;SDS011;27766;52.174;5.456;2023-10-31T09:50:13;3.92;;;2.05;;
42110;SDS011;27766;52.174;5.456;2023-10-31T09:52:41;3.63;;;2.05;;
42110;SDS011;27766;52.174;5.456;2023-10-31T09:55:08;6.20;;;1.98;;
42110;SDS011;27766;52.174;5.456;2023-10-31T09:57:36;7.43;;;2.17;;
42110;SDS011;27766;52.174;5.456;2023-10-31T10:00:03;5.55;;;2.28;;
42110;SDS011;27766;52.174;5.456;2023-10-31T10:02:30;3.42;;;1.80;;
42110;SDS011;27766;52.174;5.456;2023-10-31T10:04:58;5.68;;;2.08;;
42110;SDS011;27766;52.174;5.456;2023-10-31T10:07:25;3.45;;;2.03;;
42110;SDS011;27766;52.174;5.456;2023-10-31T10:09:53;4.35;;;1.33;;
42110;SDS011;27766;52.174;5.456;2023-10-31T10:12:23;4.00;;;1.60;;
42110;SDS011;27766;52.174;5.456;2023-10-31T10:14:50;5.20;;;2.20;;
42110;SDS011;27766;52.174;5.456;2023-10-31T10:17:19;3.75;;;1.80;;
42110;SDS011;27766;52.174;5.456;2023-10-31T10:20:04;3.50;;;1.80;;
42110;SDS011;27766;52.174;5.456;2023-10-31T10:22:39;11.77;;;1.85;;
42110;SDS011;27766;52.174;5.456;2023-10-31T10:25:08;6.65;;;2.45;;
42110;SDS011;27766;52.174;5.456;2023-10-31T10:27:48;4.75;;;1.95;;
42110;SDS011;27766;52.174;5.456;2023-10-31T10:30:15;4.65;;;1.98;;
42110;SDS011;27766;52.174;5.456;2023-10-31T10:32:43;4.07;;;2.28;;
42110;SDS011;27766;52.174;5.456;2023-10-31T10:35:11;4.78;;;2.05;;
42110;SDS011;27766;52.174;5.456;2023-10-31T10:37:38;10.43;;;2.47;;
42110;SDS011;27766;52.174;5.456;2023-10-31T10:40:07;5.72;;;2.13;;
42110;SDS011;27766;52.174;5.456;2023-10-31T10:42:44;2.58;;;2.00;;
42110;SDS011;27766;52.174;5.456;2023-10-31T10:45:14;9.93;;;2.42;;
42110;SDS011;27766;52.174;5.456;2023-10-31T10:47:47;5.20;;;2.45;;
42110;SDS011;27766;52.174;5.456;2023-10-31T10:50:18;5.53;;;1.98;;
42110;SDS011;27766;52.174;5.456;2023-10-31T10:55:39;6.72;;;1.95;;
42110;SDS011;27766;52.174;5.456;2023-10-31T10:58:22;4.40;;;2.03;;
42110;SDS011;27766;52.174;5.456;2023-10-31T11:01:12;3.75;;;2.05;;
42110;SDS011;27766;52.174;5.456;2023-10-31T11:03:40;8.75;;;2.05;;
42110;SDS011;27766;52.174;5.456;2023-10-31T11:06:08;4.18;;;2.22;;
42110;SDS011;27766;52.174;5.456;2023-10-31T11:08:36;3.47;;;1.80;;
42110;SDS011;27766;52.174;5.456;2023-10-31T11:11:04;5.55;;;2.13;;
42110;SDS011;27766;52.174;5.456;2023-10-31T11:13:32;3.65;;;1.50;;
42110;SDS011;27766;52.174;5.456;2023-10-31T11:16:01;3.70;;;1.30;;
42110;SDS011;27766;52.174;5.456;2023-10-31T11:18:35;2.15;;;1.40;;
42110;SDS011;27766;52.174;5.456;2023-10-31T11:21:03;1.77;;;1.08;;
42110;SDS011;27766;52.174;5.456;2023-10-31T11:23:30;3.10;;;1.80;;
42110;SDS011;27766;52.174;5.456;2023-10-31T11:25:58;2.97;;;1.05;;
42110;SDS011;27766;52.174;5.456;2023-10-31T11:28:25;2.40;;;1.33;;
42110;SDS011;27766;52.174;5.456;2023-10-31T11:30:52;2.05;;;1.13;;
42110;SDS011;27766;52.174;5.456;2023-10-31T11:33:25;3.72;;;1.17;;
42110;SDS011;27766;52.174;5.456;2023-10-31T11:36:02;2.50;;;1.20;;
42110;SDS011;27766;52.174;5.456;2023-10-31T11:38:31;1.60;;;1.05;;
42110;SDS011;27766;52.174;5.456;2023-10-31T11:41:03;2.40;;;1.00;;
42110;SDS011;27766;52.174;5.456;2023-10-31T11:46:19;3.08;;;1.60;;
42110;SDS011;27766;52.174;5.456;2023-10-31T11:48:53;3.00;;;1.70;;
42110;SDS011;27766;52.174;5.456;2023-10-31T11:51:22;4.35;;;1.48;;
42110;SDS011;27766;52.174;5.456;2023-10-31T11:53:50;4.15;;;1.95;;
42110;SDS011;27766;52.174;5.456;2023-10-31T11:56:21;3.40;;;1.73;;
42110;SDS011;27766;52.174;5.456;2023-10-31T11:59:01;7.35;;;2.20;;
42110;SDS011;27766;52.174;5.456;2023-10-31T12:01:30;3.05;;;1.23;;
42110;SDS011;27766;52.174;5.456;2023-10-31T12:03:58;3.97;;;1.88;;
42110;SDS011;27766;52.174;5.456;2023-10-31T12:06:25;3.72;;;1.77;;
42110;SDS011;27766;52.174;5.456;2023-10-31T12:08:53;2.53;;;1.27;;
42110;SDS011;27766;52.174;5.456;2023-10-31T12:11:25;4.97;;;1.90;;
42110;SDS011;27766;52.174;5.456;2023-10-31T12:16:25;3.88;;;2.30;;
42110;SDS011;27766;52.174;5.456;2023-10-31T12:18:58;3.63;;;2.20;;
42110;SDS011;27766;52.174;5.456;2023-10-31T12:24:11;9.60;;;2.90;;
42110;SDS011;27766;52.174;5.456;2023-10-31T12:26:39;6.28;;;2.88;;
42110;SDS011;27766;52.174;5.456;2023-10-31T12:29:07;4.18;;;2.35;;
42110;SDS011;27766;52.174;5.456;2023-10-31T12:31:38;4.03;;;3.35;;
42110;SDS011;27766;52.174;5.456;2023-10-31T12:34:06;5.20;;;3.05;;
42110;SDS011;27766;52.174;5.456;2023-10-31T12:36:34;6.57;;;4.32;;
42110;SDS011;27766;52.174;5.456;2023-10-31T12:39:07;9.80;;;5.80;;
42110;SDS011;27766;52.174;5.456;2023-10-31T12:41:36;9.93;;;7.50;;
42110;SDS011;27766;52.174;5.456;2023-10-31T12:44:04;14.27;;;9.45;;
42110;SDS011;27766;52.174;5.456;2023-10-31T12:46:32;17.65;;;11.82;;
42110;SDS011;27766;52.174;5.456;2023-10-31T12:49:01;19.80;;;12.55;;
42110;SDS011;27766;52.174;5.456;2023-10-31T12:51:28;17.60;;;12.32;;
42110;SDS011;27766;52.174;5.456;2023-10-31T12:53:55;19.48;;;12.98;;
42110;SDS011;27766;52.174;5.456;2023-10-31T12:56:38;18.63;;;12.85;;
42110;SDS011;27766;52.174;5.456;2023-10-31T12:59:07;23.63;;;13.07;;
42110;SDS011;27766;52.174;5.456;2023-10-31T13:01:35;19.90;;;14.15;;
42110;SDS011;27766;52.174;5.456;2023-10-31T13:04:03;26.17;;;15.05;;
42110;SDS011;27766;52.174;5.456;2023-10-31T13:06:31;18.88;;;13.80;;
42110;SDS011;27766;52.174;5.456;2023-10-31T13:08:58;19.45;;;13.88;;
42110;SDS011;27766;52.174;5.456;2023-10-31T13:11:30;20.27;;;14.15;;
42110;SDS011;27766;52.174;5.456;2023-10-31T13:13:57;24.40;;;14.48;;
42110;SDS011;27766;52.174;5.456;2023-10-31T13:16:25;25.80;;;15.00;;
42110;SDS011;27766;52.174;5.456;2023-10-31T13:18:54;28.90;;;14.80;;
42110;SDS011;27766;52.174;5.456;2023-10-31T13:21:21;26.52;;;15.65;;
42110;SDS011;27766;52.174;5.456;2023-10-31T13:23:49;29.33;;;15.55;;
42110;SDS011;27766;52.174;5.456;2023-10-31T13:26:16;25.08;;;16.02;;
42110;SDS011;27766;52.174;5.456;2023-10-31T13:28:44;31.85;;;17.98;;
42110;SDS011;27766;52.174;5.456;2023-10-31T13:31:11;24.08;;;16.90;;
42110;SDS011;27766;52.174;5.456;2023-10-31T13:33:39;25.73;;;17.15;;
42110;SDS011;27766;52.174;5.456;2023-10-31T13:36:07;23.27;;;16.77;;
42110;SDS011;27766;52.174;5.456;2023-10-31T13:38:34;34.28;;;17.98;;
42110;SDS011;27766;52.174;5.456;2023-10-31T13:41:02;27.55;;;16.70;;
42110;SDS011;27766;52.174;5.456;2023-10-31T13:43:30;21.60;;;15.25;;
42110;SDS011;27766;52.174;5.456;2023-10-31T13:45:57;31.52;;;17.92;;
42110;SDS011;27766;52.174;5.456;2023-10-31T13:48:24;27.23;;;16.95;;
42110;SDS011;27766;52.174;5.456;2023-10-31T13:50:52;28.20;;;15.75;;
42110;SDS011;27766;52.174;5.456;2023-10-31T13:53:19;24.58;;;15.77;;
42110;SDS011;27766;52.174;5.456;2023-10-31T13:55:47;27.33;;;15.57;;
42110;SDS011;27766;52.174;5.456;2023-10-31T13:58:14;27.08;;;14.55;;
42110;SDS011;27766;52.174;5.456;2023-10-31T14:00:43;19.38;;;14.00;;
42110;SDS011;27766;52.174;5.456;2023-10-31T14:03:13;17.70;;;14.38;;
42110;SDS011;27766;52.174;5.456;2023-10-31T14:05:40;22.60;;;14.07;;
42110;SDS011;27766;52.174;5.456;2023-10-31T14:08:08;21.10;;;14.13;;
42110;SDS011;27766;52.174;5.456;2023-10-31T14:10:36;22.15;;;13.75;;
42110;SDS011;27766;52.174;5.456;2023-10-31T14:13:03;21.17;;;13.02;;
42110;SDS011;27766;52.174;5.456;2023-10-31T14:15:30;15.80;;;11.23;;
42110;SDS011;27766;52.174;5.456;2023-10-31T14:17:59;15.95;;;10.60;;
42110;SDS011;27766;52.174;5.456;2023-10-31T14:20:27;19.25;;;11.43;;
42110;SDS011;27766;52.174;5.456;2023-10-31T14:22:54;22.00;;;11.48;;
42110;SDS011;27766;52.174;5.456;2023-10-31T14:25:21;15.45;;;10.55;;
42110;SDS011;27766;52.174;5.456;2023-10-31T14:27:48;13.05;;;10.10;;
42110;SDS011;27766;52.174;5.456;2023-10-31T14:30:15;15.43;;;10.57;;
42110;SDS011;27766;52.174;5.456;2023-10-31T14:32:43;19.05;;;10.63;;
42110;SDS011;27766;52.174;5.456;2023-10-31T14:35:10;15.75;;;10.85;;
42110;SDS011;27766;52.174;5.456;2023-10-31T14:37:38;21.27;;;12.32;;
42110;SDS011;27766;52.174;5.456;2023-10-31T14:40:05;13.93;;;10.77;;
42110;SDS011;27766;52.174;5.456;2023-10-31T14:42:33;14.48;;;10.73;;
42110;SDS011;27766;52.174;5.456;2023-10-31T14:45:01;21.20;;;11.70;;
42110;SDS011;27766;52.174;5.456;2023-10-31T14:47:28;22.85;;;11.85;;
42110;SDS011;27766;52.174;5.456;2023-10-31T14:49:56;17.63;;;12.57;;
42110;SDS011;27766;52.174;5.456;2023-10-31T14:52:23;17.98;;;12.77;;
42110;SDS011;27766;52.174;5.456;2023-10-31T14:54:50;18.60;;;12.43;;
42110;SDS011;27766;52.174;5.456;2023-10-31T14:57:17;15.43;;;12.75;;